sensor_id;sensor_type;location;lat;lon;timestamp;temperature;humidity
5960;DHT22;3006;50.956;7.002;2022-10-16T00:01:03;15.80;99.90
5960;DHT22;3006;50.956;7.002;2022-10-16T00:03:31;15.80;99.90
5960;DHT22;3006;50.956;7.002;2022-10-16T00:06:01;15.80;99.90
5960;DHT22;3006;50.956;7.002;2022-10-16T00:08:30;15.80;99.90
5960;DHT22;3006;50.956;7.002;2022-10-16T00:10:59;15.80;99.90
5960;DHT22;3006;50.956;7.002;2022-10-16T00:13:28;15.80;99.90
5960;DHT22;3006;50.956;7.002;2022-10-16T00:15:57;15.80;99.90
5960;DHT22;3006;50.956;7.002;2022-10-16T00:18:27;15.80;99.90
5960;DHT22;3006;50.956;7.002;2022-10-16T00:21:00;15.80;99.90
5960;DHT22;3006;50.956;7.002;2022-10-16T00:23:30;15.80;99.90
5960;DHT22;3006;50.956;7.002;2022-10-16T00:26:00;15.70;99.90
5960;DHT22;3006;50.956;7.002;2022-10-16T00:28:28;15.70;99.90
5960;DHT22;3006;50.956;7.002;2022-10-16T00:30:56;15.70;99.90
5960;DHT22;3006;50.956;7.002;2022-10-16T00:33:25;15.70;99.90
5960;DHT22;3006;50.956;7.002;2022-10-16T00:35:53;15.70;99.90
5960;DHT22;3006;50.956;7.002;2022-10-16T00:38:21;15.70;99.90
5960;DHT22;3006;50.956;7.002;2022-10-16T00:40:50;15.70;99.90
5960;DHT22;3006;50.956;7.002;2022-10-16T00:43:37;15.70;99.90
5960;DHT22;3006;50.956;7.002;2022-10-16T00:46:12;15.70;99.90
5960;DHT22;3006;50.956;7.002;2022-10-16T00:48:43;15.70;99.90
5960;DHT22;3006;50.956;7.002;2022-10-16T00:51:13;15.60;99.90
5960;DHT22;3006;50.956;7.002;2022-10-16T00:53:42;15.60;99.90
5960;DHT22;3006;50.956;7.002;2022-10-16T00:56:11;15.60;99.90
5960;DHT22;3006;50.956;7.002;2022-10-16T00:58:40;15.60;99.90
5960;DHT22;3006;50.956;7.002;2022-10-16T01:01:08;15.60;99.90
5960;DHT22;3006;50.956;7.002;2022-10-16T01:03:36;15.50;99.90
5960;DHT22;3006;50.956;7.002;2022-10-16T01:06:24;15.50;99.90
5960;DHT22;3006;50.956;7.002;2022-10-16T01:09:13;15.50;99.90
5960;DHT22;3006;50.956;7.002;2022-10-16T01:11:55;15.50;99.90
5960;DHT22;3006;50.956;7.002;2022-10-16T01:14:32;15.40;99.90
5960;DHT22;3006;50.956;7.002;2022-10-16T01:17:06;15.30;99.90
5960;DHT22;3006;50.956;7.002;2022-10-16T01:19:50;15.30;99.90
5960;DHT22;3006;50.956;7.002;2022-10-16T01:22:20;15.30;99.90
5960;DHT22;3006;50.956;7.002;2022-10-16T01:24:54;15.20;99.90
5960;DHT22;3006;50.956;7.002;2022-10-16T01:27:25;15.20;99.90
5960;DHT22;3006;50.956;7.002;2022-10-16T01:29:58;15.10;99.90
5960;DHT22;3006;50.956;7.002;2022-10-16T01:32:34;15.10;99.90
5960;DHT22;3006;50.956;7.002;2022-10-16T01:35:06;15.20;99.90
5960;DHT22;3006;50.956;7.002;2022-10-16T01:37:39;15.10;99.90
5960;DHT22;3006;50.956;7.002;2022-10-16T01:40:24;15.10;99.90
5960;DHT22;3006;50.956;7.002;2022-10-16T01:42:59;15.10;99.90
5960;DHT22;3006;50.956;7.002;2022-10-16T01:45:29;15.10;99.90
5960;DHT22;3006;50.956;7.002;2022-10-16T01:48:00;15.10;99.90
5960;DHT22;3006;50.956;7.002;2022-10-16T01:50:32;15.10;99.90
5960;DHT22;3006;50.956;7.002;2022-10-16T01:53:02;15.00;99.90
5960;DHT22;3006;50.956;7.002;2022-10-16T01:55:33;15.00;99.90
5960;DHT22;3006;50.956;7.002;2022-10-16T01:58:07;15.00;99.90
5960;DHT22;3006;50.956;7.002;2022-10-16T02:00:37;15.00;99.90
5960;DHT22;3006;50.956;7.002;2022-10-16T02:03:07;15.00;99.90
5960;DHT22;3006;50.956;7.002;2022-10-16T02:05:40;15.00;99.90
5960;DHT22;3006;50.956;7.002;2022-10-16T02:08:08;15.00;99.90
5960;DHT22;3006;50.956;7.002;2022-10-16T02:10:37;15.00;99.90
5960;DHT22;3006;50.956;7.002;2022-10-16T02:13:09;14.90;99.90
5960;DHT22;3006;50.956;7.002;2022-10-16T02:15:38;14.90;99.90
5960;DHT22;3006;50.956;7.002;2022-10-16T02:18:07;14.90;99.90
5960;DHT22;3006;50.956;7.002;2022-10-16T02:20:39;15.00;99.90
5960;DHT22;3006;50.956;7.002;2022-10-16T02:23:12;15.00;99.90
5960;DHT22;3006;50.956;7.002;2022-10-16T02:25:44;15.00;99.90
5960;DHT22;3006;50.956;7.002;2022-10-16T02:28:39;15.00;99.90
5960;DHT22;3006;50.956;7.002;2022-10-16T02:31:10;15.00;99.90
5960;DHT22;3006;50.956;7.002;2022-10-16T02:33:40;15.00;99.90
5960;DHT22;3006;50.956;7.002;2022-10-16T02:36:10;15.10;99.90
5960;DHT22;3006;50.956;7.002;2022-10-16T02:38:40;15.10;99.90
5960;DHT22;3006;50.956;7.002;2022-10-16T02:41:08;15.10;99.90
5960;DHT22;3006;50.956;7.002;2022-10-16T02:43:38;15.10;99.90
5960;DHT22;3006;50.956;7.002;2022-10-16T02:46:06;15.10;99.90
5960;DHT22;3006;50.956;7.002;2022-10-16T02:48:34;15.10;99.90
5960;DHT22;3006;50.956;7.002;2022-10-16T02:51:02;15.10;99.90
5960;DHT22;3006;50.956;7.002;2022-10-16T02:53:31;15.20;99.90
5960;DHT22;3006;50.956;7.002;2022-10-16T02:55:59;15.20;99.90
5960;DHT22;3006;50.956;7.002;2022-10-16T02:58:27;15.20;99.90
5960;DHT22;3006;50.956;7.002;2022-10-16T03:00:59;15.20;99.90
5960;DHT22;3006;50.956;7.002;2022-10-16T03:03:28;15.20;99.90
5960;DHT22;3006;50.956;7.002;2022-10-16T03:05:56;15.20;99.90
5960;DHT22;3006;50.956;7.002;2022-10-16T03:08:25;15.20;99.90
5960;DHT22;3006;50.956;7.002;2022-10-16T03:10:53;15.20;99.90
5960;DHT22;3006;50.956;7.002;2022-10-16T03:13:22;15.20;99.90
5960;DHT22;3006;50.956;7.002;2022-10-16T03:15:50;15.20;99.90
5960;DHT22;3006;50.956;7.002;2022-10-16T03:18:19;15.20;99.90
5960;DHT22;3006;50.956;7.002;2022-10-16T03:20:48;15.20;99.90
5960;DHT22;3006;50.956;7.002;2022-10-16T03:23:16;15.20;99.90
5960;DHT22;3006;50.956;7.002;2022-10-16T03:25:44;15.20;99.90
5960;DHT22;3006;50.956;7.002;2022-10-16T03:28:14;15.10;99.90
5960;DHT22;3006;50.956;7.002;2022-10-16T03:30:43;15.10;99.90
5960;DHT22;3006;50.956;7.002;2022-10-16T03:33:11;15.10;99.90
5960;DHT22;3006;50.956;7.002;2022-10-16T03:35:40;15.10;99.90
5960;DHT22;3006;50.956;7.002;2022-10-16T03:38:08;15.00;99.90
5960;DHT22;3006;50.956;7.002;2022-10-16T03:40:36;15.00;99.90
5960;DHT22;3006;50.956;7.002;2022-10-16T03:43:04;15.00;99.90
5960;DHT22;3006;50.956;7.002;2022-10-16T03:45:33;15.00;99.90
5960;DHT22;3006;50.956;7.002;2022-10-16T03:48:01;15.00;99.90
5960;DHT22;3006;50.956;7.002;2022-10-16T03:50:30;15.00;99.90
5960;DHT22;3006;50.956;7.002;2022-10-16T03:52:59;14.90;99.90
5960;DHT22;3006;50.956;7.002;2022-10-16T03:55:27;15.00;99.90
5960;DHT22;3006;50.956;7.002;2022-10-16T03:57:55;15.00;99.90
5960;DHT22;3006;50.956;7.002;2022-10-16T04:00:23;15.00;99.90
5960;DHT22;3006;50.956;7.002;2022-10-16T04:02:51;15.00;99.90
5960;DHT22;3006;50.956;7.002;2022-10-16T04:05:20;15.10;99.90
5960;DHT22;3006;50.956;7.002;2022-10-16T04:07:48;15.10;99.90
5960;DHT22;3006;50.956;7.002;2022-10-16T04:10:18;15.10;99.90
5960;DHT22;3006;50.956;7.002;2022-10-16T04:12:46;15.10;99.90
5960;DHT22;3006;50.956;7.002;2022-10-16T04:15:14;15.20;99.90
5960;DHT22;3006;50.956;7.002;2022-10-16T04:17:44;15.20;99.90
5960;DHT22;3006;50.956;7.002;2022-10-16T04:20:12;15.20;99.90
5960;DHT22;3006;50.956;7.002;2022-10-16T04:22:40;15.20;99.90
5960;DHT22;3006;50.956;7.002;2022-10-16T04:25:08;15.20;99.90
5960;DHT22;3006;50.956;7.002;2022-10-16T04:27:39;15.20;99.90
5960;DHT22;3006;50.956;7.002;2022-10-16T04:30:12;15.20;99.90
5960;DHT22;3006;50.956;7.002;2022-10-16T04:32:40;15.30;99.90
5960;DHT22;3006;50.956;7.002;2022-10-16T04:35:08;15.30;99.90
5960;DHT22;3006;50.956;7.002;2022-10-16T04:37:36;15.30;99.90
5960;DHT22;3006;50.956;7.002;2022-10-16T04:40:05;15.30;99.90
5960;DHT22;3006;50.956;7.002;2022-10-16T04:42:34;15.30;99.90
5960;DHT22;3006;50.956;7.002;2022-10-16T04:45:04;15.30;99.90
5960;DHT22;3006;50.956;7.002;2022-10-16T04:47:32;15.30;99.90
5960;DHT22;3006;50.956;7.002;2022-10-16T04:50:01;15.30;99.90
5960;DHT22;3006;50.956;7.002;2022-10-16T04:52:29;15.30;99.90
5960;DHT22;3006;50.956;7.002;2022-10-16T04:55:01;15.30;99.90
5960;DHT22;3006;50.956;7.002;2022-10-16T04:57:29;15.30;99.90
5960;DHT22;3006;50.956;7.002;2022-10-16T04:59:57;15.30;99.90
5960;DHT22;3006;50.956;7.002;2022-10-16T05:02:27;15.30;99.90
5960;DHT22;3006;50.956;7.002;2022-10-16T05:04:55;15.30;99.90
5960;DHT22;3006;50.956;7.002;2022-10-16T05:07:23;15.30;99.90
5960;DHT22;3006;50.956;7.002;2022-10-16T05:09:52;15.20;99.90
5960;DHT22;3006;50.956;7.002;2022-10-16T05:12:20;15.30;99.90
5960;DHT22;3006;50.956;7.002;2022-10-16T05:14:48;15.30;99.90
5960;DHT22;3006;50.956;7.002;2022-10-16T05:17:16;15.30;99.90
5960;DHT22;3006;50.956;7.002;2022-10-16T05:19:45;15.30;99.90
5960;DHT22;3006;50.956;7.002;2022-10-16T05:22:13;15.30;99.90
5960;DHT22;3006;50.956;7.002;2022-10-16T05:24:41;15.30;99.90
5960;DHT22;3006;50.956;7.002;2022-10-16T05:27:10;15.30;99.90
5960;DHT22;3006;50.956;7.002;2022-10-16T05:29:45;15.30;99.90
5960;DHT22;3006;50.956;7.002;2022-10-16T05:32:14;15.30;99.90
5960;DHT22;3006;50.956;7.002;2022-10-16T05:34:43;15.30;99.90
5960;DHT22;3006;50.956;7.002;2022-10-16T05:37:13;15.30;99.90
5960;DHT22;3006;50.956;7.002;2022-10-16T05:39:41;15.30;99.90
5960;DHT22;3006;50.956;7.002;2022-10-16T05:42:09;15.30;99.90
5960;DHT22;3006;50.956;7.002;2022-10-16T05:44:37;15.30;99.90
5960;DHT22;3006;50.956;7.002;2022-10-16T05:47:05;15.30;99.90
5960;DHT22;3006;50.956;7.002;2022-10-16T05:49:33;15.30;99.90
5960;DHT22;3006;50.956;7.002;2022-10-16T05:52:06;15.30;99.90
5960;DHT22;3006;50.956;7.002;2022-10-16T05:54:35;15.30;99.90
5960;DHT22;3006;50.956;7.002;2022-10-16T05:57:05;15.30;99.90
5960;DHT22;3006;50.956;7.002;2022-10-16T05:59:33;15.30;99.90
5960;DHT22;3006;50.956;7.002;2022-10-16T06:02:01;15.20;99.90
5960;DHT22;3006;50.956;7.002;2022-10-16T06:04:29;15.20;99.90
5960;DHT22;3006;50.956;7.002;2022-10-16T06:06:58;15.20;99.90
5960;DHT22;3006;50.956;7.002;2022-10-16T06:09:27;15.20;99.90
5960;DHT22;3006;50.956;7.002;2022-10-16T06:11:57;15.20;99.90
5960;DHT22;3006;50.956;7.002;2022-10-16T06:14:25;15.20;99.90
5960;DHT22;3006;50.956;7.002;2022-10-16T06:16:53;15.20;99.90
5960;DHT22;3006;50.956;7.002;2022-10-16T06:19:22;15.10;99.90
5960;DHT22;3006;50.956;7.002;2022-10-16T06:21:50;15.10;99.90
5960;DHT22;3006;50.956;7.002;2022-10-16T06:24:18;15.10;99.90
5960;DHT22;3006;50.956;7.002;2022-10-16T06:26:46;15.10;99.90
5960;DHT22;3006;50.956;7.002;2022-10-16T06:29:16;15.10;99.90
5960;DHT22;3006;50.956;7.002;2022-10-16T06:31:44;15.00;99.90
5960;DHT22;3006;50.956;7.002;2022-10-16T06:34:12;15.00;99.90
5960;DHT22;3006;50.956;7.002;2022-10-16T06:36:40;15.00;99.90
5960;DHT22;3006;50.956;7.002;2022-10-16T06:39:10;15.00;99.90
5960;DHT22;3006;50.956;7.002;2022-10-16T06:41:38;15.00;99.90
5960;DHT22;3006;50.956;7.002;2022-10-16T06:44:16;15.00;99.90
5960;DHT22;3006;50.956;7.002;2022-10-16T06:46:44;15.10;99.90
5960;DHT22;3006;50.956;7.002;2022-10-16T06:49:12;15.10;99.90
5960;DHT22;3006;50.956;7.002;2022-10-16T06:51:40;15.20;99.90
5960;DHT22;3006;50.956;7.002;2022-10-16T06:54:09;15.20;99.90
5960;DHT22;3006;50.956;7.002;2022-10-16T06:56:37;15.30;99.90
5960;DHT22;3006;50.956;7.002;2022-10-16T06:59:05;15.40;99.90
5960;DHT22;3006;50.956;7.002;2022-10-16T07:01:34;15.40;99.90
5960;DHT22;3006;50.956;7.002;2022-10-16T07:04:02;15.50;99.90
5960;DHT22;3006;50.956;7.002;2022-10-16T07:06:32;15.50;99.90
5960;DHT22;3006;50.956;7.002;2022-10-16T07:09:03;15.50;99.90
5960;DHT22;3006;50.956;7.002;2022-10-16T07:11:32;15.60;99.90
5960;DHT22;3006;50.956;7.002;2022-10-16T07:14:00;15.60;99.90
5960;DHT22;3006;50.956;7.002;2022-10-16T07:16:29;15.60;99.90
5960;DHT22;3006;50.956;7.002;2022-10-16T07:19:00;15.70;99.90
5960;DHT22;3006;50.956;7.002;2022-10-16T07:21:30;15.70;99.90
5960;DHT22;3006;50.956;7.002;2022-10-16T07:24:03;15.80;99.90
5960;DHT22;3006;50.956;7.002;2022-10-16T07:26:33;15.80;99.90
5960;DHT22;3006;50.956;7.002;2022-10-16T07:29:02;15.80;99.90
5960;DHT22;3006;50.956;7.002;2022-10-16T07:31:31;15.90;99.90
5960;DHT22;3006;50.956;7.002;2022-10-16T07:34:01;15.90;99.90
5960;DHT22;3006;50.956;7.002;2022-10-16T07:36:29;15.90;99.90
5960;DHT22;3006;50.956;7.002;2022-10-16T07:38:57;16.00;99.90
5960;DHT22;3006;50.956;7.002;2022-10-16T07:41:27;16.00;99.90
5960;DHT22;3006;50.956;7.002;2022-10-16T07:43:55;16.00;99.90
5960;DHT22;3006;50.956;7.002;2022-10-16T07:46:26;16.00;99.90
5960;DHT22;3006;50.956;7.002;2022-10-16T07:48:55;16.00;99.90
5960;DHT22;3006;50.956;7.002;2022-10-16T07:51:26;16.00;99.90
5960;DHT22;3006;50.956;7.002;2022-10-16T07:53:54;15.90;99.90
5960;DHT22;3006;50.956;7.002;2022-10-16T07:56:22;16.00;99.90
5960;DHT22;3006;50.956;7.002;2022-10-16T07:58:51;16.00;99.90
5960;DHT22;3006;50.956;7.002;2022-10-16T08:01:20;16.00;99.90
5960;DHT22;3006;50.956;7.002;2022-10-16T08:03:49;16.10;99.90
5960;DHT22;3006;50.956;7.002;2022-10-16T08:06:25;16.10;99.90
5960;DHT22;3006;50.956;7.002;2022-10-16T08:08:55;16.10;99.90
5960;DHT22;3006;50.956;7.002;2022-10-16T08:11:23;16.20;99.90
5960;DHT22;3006;50.956;7.002;2022-10-16T08:13:51;16.20;99.90
5960;DHT22;3006;50.956;7.002;2022-10-16T08:16:20;16.30;99.90
5960;DHT22;3006;50.956;7.002;2022-10-16T08:18:49;16.30;99.90
5960;DHT22;3006;50.956;7.002;2022-10-16T08:21:20;16.40;99.90
5960;DHT22;3006;50.956;7.002;2022-10-16T08:23:50;16.50;99.90
5960;DHT22;3006;50.956;7.002;2022-10-16T08:26:24;16.50;99.90
5960;DHT22;3006;50.956;7.002;2022-10-16T08:28:53;16.60;99.90
5960;DHT22;3006;50.956;7.002;2022-10-16T08:31:21;16.70;99.90
5960;DHT22;3006;50.956;7.002;2022-10-16T08:33:49;16.80;99.90
5960;DHT22;3006;50.956;7.002;2022-10-16T08:36:18;16.80;99.90
5960;DHT22;3006;50.956;7.002;2022-10-16T08:38:49;16.90;99.90
5960;DHT22;3006;50.956;7.002;2022-10-16T08:41:35;16.90;99.90
5960;DHT22;3006;50.956;7.002;2022-10-16T08:44:22;17.00;99.90
5960;DHT22;3006;50.956;7.002;2022-10-16T08:46:56;17.10;99.90
5960;DHT22;3006;50.956;7.002;2022-10-16T08:49:30;17.10;99.90
5960;DHT22;3006;50.956;7.002;2022-10-16T08:51:59;17.20;99.90
5960;DHT22;3006;50.956;7.002;2022-10-16T08:54:32;17.20;99.90
5960;DHT22;3006;50.956;7.002;2022-10-16T08:57:09;17.20;99.90
5960;DHT22;3006;50.956;7.002;2022-10-16T08:59:39;17.30;99.90
5960;DHT22;3006;50.956;7.002;2022-10-16T09:02:23;17.30;99.90
5960;DHT22;3006;50.956;7.002;2022-10-16T09:05:09;17.40;99.90
5960;DHT22;3006;50.956;7.002;2022-10-16T09:07:45;17.40;99.90
5960;DHT22;3006;50.956;7.002;2022-10-16T09:10:26;17.50;99.90
5960;DHT22;3006;50.956;7.002;2022-10-16T09:13:03;17.50;99.90
5960;DHT22;3006;50.956;7.002;2022-10-16T09:15:41;17.50;99.90
5960;DHT22;3006;50.956;7.002;2022-10-16T09:18:15;17.60;99.90
5960;DHT22;3006;50.956;7.002;2022-10-16T09:20:49;17.60;99.90
5960;DHT22;3006;50.956;7.002;2022-10-16T09:23:22;17.60;99.90
5960;DHT22;3006;50.956;7.002;2022-10-16T09:25:55;17.70;99.90
5960;DHT22;3006;50.956;7.002;2022-10-16T09:28:31;17.70;99.90
5960;DHT22;3006;50.956;7.002;2022-10-16T09:30:59;17.70;99.90
5960;DHT22;3006;50.956;7.002;2022-10-16T09:33:30;17.80;99.90
5960;DHT22;3006;50.956;7.002;2022-10-16T09:36:03;17.80;99.90
5960;DHT22;3006;50.956;7.002;2022-10-16T09:38:35;17.90;99.90
5960;DHT22;3006;50.956;7.002;2022-10-16T09:41:15;17.90;99.90
5960;DHT22;3006;50.956;7.002;2022-10-16T09:43:48;18.00;99.90
5960;DHT22;3006;50.956;7.002;2022-10-16T09:46:35;18.00;99.90
5960;DHT22;3006;50.956;7.002;2022-10-16T09:49:18;18.00;99.90
5960;DHT22;3006;50.956;7.002;2022-10-16T09:51:47;18.10;99.90
5960;DHT22;3006;50.956;7.002;2022-10-16T09:54:16;18.10;99.90
5960;DHT22;3006;50.956;7.002;2022-10-16T09:56:47;18.00;99.90
5960;DHT22;3006;50.956;7.002;2022-10-16T09:59:26;18.10;99.90
5960;DHT22;3006;50.956;7.002;2022-10-16T10:02:03;18.20;99.90
5960;DHT22;3006;50.956;7.002;2022-10-16T10:04:39;18.30;99.90
5960;DHT22;3006;50.956;7.002;2022-10-16T10:07:17;18.30;99.90
5960;DHT22;3006;50.956;7.002;2022-10-16T10:09:46;18.40;99.90
5960;DHT22;3006;50.956;7.002;2022-10-16T10:12:20;18.40;99.90
5960;DHT22;3006;50.956;7.002;2022-10-16T10:14:54;18.40;99.90
5960;DHT22;3006;50.956;7.002;2022-10-16T10:17:24;18.40;99.90
5960;DHT22;3006;50.956;7.002;2022-10-16T10:19:54;18.40;99.90
5960;DHT22;3006;50.956;7.002;2022-10-16T10:22:25;18.40;99.90
5960;DHT22;3006;50.956;7.002;2022-10-16T10:25:00;18.50;99.90
5960;DHT22;3006;50.956;7.002;2022-10-16T10:27:42;18.50;99.90
5960;DHT22;3006;50.956;7.002;2022-10-16T10:30:18;18.70;99.90
5960;DHT22;3006;50.956;7.002;2022-10-16T10:32:56;18.80;99.90
5960;DHT22;3006;50.956;7.002;2022-10-16T10:35:35;18.80;99.90
5960;DHT22;3006;50.956;7.002;2022-10-16T10:38:16;18.80;99.90
5960;DHT22;3006;50.956;7.002;2022-10-16T10:40:51;18.70;99.90
5960;DHT22;3006;50.956;7.002;2022-10-16T10:43:40;18.60;99.90
5960;DHT22;3006;50.956;7.002;2022-10-16T10:46:16;18.60;99.90
5960;DHT22;3006;50.956;7.002;2022-10-16T10:51:41;18.60;99.90
5960;DHT22;3006;50.956;7.002;2022-10-16T10:54:14;18.60;99.90
5960;DHT22;3006;50.956;7.002;2022-10-16T10:56:51;18.70;99.90
5960;DHT22;3006;50.956;7.002;2022-10-16T10:59:37;18.80;99.90
5960;DHT22;3006;50.956;7.002;2022-10-16T11:02:15;18.90;99.90
5960;DHT22;3006;50.956;7.002;2022-10-16T11:07:47;19.00;99.90
5960;DHT22;3006;50.956;7.002;2022-10-16T11:10:20;19.00;99.90
5960;DHT22;3006;50.956;7.002;2022-10-16T11:12:52;19.00;99.90
5960;DHT22;3006;50.956;7.002;2022-10-16T11:15:27;19.00;99.90
5960;DHT22;3006;50.956;7.002;2022-10-16T11:18:00;19.00;99.90
5960;DHT22;3006;50.956;7.002;2022-10-16T11:20:36;19.00;99.90
5960;DHT22;3006;50.956;7.002;2022-10-16T11:23:08;19.00;99.90
5960;DHT22;3006;50.956;7.002;2022-10-16T11:25:39;19.00;99.90
5960;DHT22;3006;50.956;7.002;2022-10-16T11:28:12;19.10;99.90
5960;DHT22;3006;50.956;7.002;2022-10-16T11:30:46;19.20;99.90
5960;DHT22;3006;50.956;7.002;2022-10-16T11:33:29;19.20;99.90
5960;DHT22;3006;50.956;7.002;2022-10-16T11:36:04;19.20;99.90
5960;DHT22;3006;50.956;7.002;2022-10-16T11:38:38;19.20;99.90
5960;DHT22;3006;50.956;7.002;2022-10-16T11:41:15;19.20;99.90
5960;DHT22;3006;50.956;7.002;2022-10-16T11:43:52;19.20;99.90
5960;DHT22;3006;50.956;7.002;2022-10-16T11:46:26;19.20;99.90
5960;DHT22;3006;50.956;7.002;2022-10-16T11:49:00;19.20;99.90
5960;DHT22;3006;50.956;7.002;2022-10-16T11:51:35;19.30;99.90
5960;DHT22;3006;50.956;7.002;2022-10-16T11:54:12;19.40;99.90
5960;DHT22;3006;50.956;7.002;2022-10-16T11:56:45;19.50;99.90
5960;DHT22;3006;50.956;7.002;2022-10-16T11:59:20;19.50;99.90
5960;DHT22;3006;50.956;7.002;2022-10-16T12:01:55;19.60;99.90
5960;DHT22;3006;50.956;7.002;2022-10-16T12:04:32;19.60;99.90
5960;DHT22;3006;50.956;7.002;2022-10-16T12:07:05;19.70;99.90
5960;DHT22;3006;50.956;7.002;2022-10-16T12:09:37;19.70;99.90
5960;DHT22;3006;50.956;7.002;2022-10-16T12:12:24;19.80;99.90
5960;DHT22;3006;50.956;7.002;2022-10-16T12:15:01;19.80;99.90
5960;DHT22;3006;50.956;7.002;2022-10-16T12:17:49;19.90;99.90
5960;DHT22;3006;50.956;7.002;2022-10-16T12:20:22;19.90;99.90
5960;DHT22;3006;50.956;7.002;2022-10-16T12:22:54;19.90;99.90
5960;DHT22;3006;50.956;7.002;2022-10-16T12:25:25;20.00;99.90
5960;DHT22;3006;50.956;7.002;2022-10-16T12:27:57;20.10;99.90
5960;DHT22;3006;50.956;7.002;2022-10-16T12:30:28;20.10;99.90
5960;DHT22;3006;50.956;7.002;2022-10-16T12:33:04;20.20;99.90
5960;DHT22;3006;50.956;7.002;2022-10-16T12:35:35;20.30;99.90
5960;DHT22;3006;50.956;7.002;2022-10-16T12:38:16;20.40;99.90
5960;DHT22;3006;50.956;7.002;2022-10-16T12:40:46;20.40;99.90
5960;DHT22;3006;50.956;7.002;2022-10-16T12:43:28;20.50;99.90
5960;DHT22;3006;50.956;7.002;2022-10-16T12:46:01;20.70;99.90
5960;DHT22;3006;50.956;7.002;2022-10-16T12:48:31;20.80;99.90
5960;DHT22;3006;50.956;7.002;2022-10-16T12:51:23;21.00;99.90
5960;DHT22;3006;50.956;7.002;2022-10-16T12:53:59;21.00;99.90
5960;DHT22;3006;50.956;7.002;2022-10-16T12:56:40;21.10;99.90
5960;DHT22;3006;50.956;7.002;2022-10-16T12:59:20;21.00;99.90
5960;DHT22;3006;50.956;7.002;2022-10-16T13:04:54;20.70;99.90
5960;DHT22;3006;50.956;7.002;2022-10-16T13:07:44;20.60;99.90
5960;DHT22;3006;50.956;7.002;2022-10-16T13:10:23;20.40;99.90
5960;DHT22;3006;50.956;7.002;2022-10-16T13:13:12;20.40;99.90
5960;DHT22;3006;50.956;7.002;2022-10-16T13:18:54;20.50;99.90
5960;DHT22;3006;50.956;7.002;2022-10-16T13:21:38;20.50;99.90
5960;DHT22;3006;50.956;7.002;2022-10-16T13:24:19;20.40;99.90
5960;DHT22;3006;50.956;7.002;2022-10-16T13:26:55;20.40;99.90
5960;DHT22;3006;50.956;7.002;2022-10-16T13:29:30;20.30;99.90
5960;DHT22;3006;50.956;7.002;2022-10-16T13:31:59;20.30;99.90
5960;DHT22;3006;50.956;7.002;2022-10-16T13:34:29;20.30;99.90
5960;DHT22;3006;50.956;7.002;2022-10-16T13:36:58;20.30;99.90
5960;DHT22;3006;50.956;7.002;2022-10-16T13:39:28;20.30;99.90
5960;DHT22;3006;50.956;7.002;2022-10-16T13:42:05;20.30;99.90
5960;DHT22;3006;50.956;7.002;2022-10-16T13:44:40;20.30;99.90
5960;DHT22;3006;50.956;7.002;2022-10-16T13:47:17;20.30;99.90
5960;DHT22;3006;50.956;7.002;2022-10-16T13:49:46;20.20;99.90
5960;DHT22;3006;50.956;7.002;2022-10-16T13:52:20;20.30;99.90
5960;DHT22;3006;50.956;7.002;2022-10-16T13:54:48;20.40;99.90
5960;DHT22;3006;50.956;7.002;2022-10-16T13:57:17;20.40;99.90
5960;DHT22;3006;50.956;7.002;2022-10-16T13:59:54;20.50;99.90
5960;DHT22;3006;50.956;7.002;2022-10-16T14:02:26;20.70;99.90
5960;DHT22;3006;50.956;7.002;2022-10-16T14:04:56;21.10;99.90
5960;DHT22;3006;50.956;7.002;2022-10-16T14:07:31;21.20;99.90
5960;DHT22;3006;50.956;7.002;2022-10-16T14:10:05;21.20;99.90
5960;DHT22;3006;50.956;7.002;2022-10-16T14:12:34;21.20;99.90
5960;DHT22;3006;50.956;7.002;2022-10-16T14:15:03;21.00;99.90
5960;DHT22;3006;50.956;7.002;2022-10-16T14:17:34;20.90;99.90
5960;DHT22;3006;50.956;7.002;2022-10-16T14:20:05;20.80;99.90
5960;DHT22;3006;50.956;7.002;2022-10-16T14:22:36;20.70;99.90
5960;DHT22;3006;50.956;7.002;2022-10-16T14:25:26;20.60;99.90
5960;DHT22;3006;50.956;7.002;2022-10-16T14:28:00;20.60;99.90
5960;DHT22;3006;50.956;7.002;2022-10-16T14:30:30;20.50;99.90
5960;DHT22;3006;50.956;7.002;2022-10-16T14:33:00;20.50;99.90
5960;DHT22;3006;50.956;7.002;2022-10-16T14:35:31;20.40;99.90
5960;DHT22;3006;50.956;7.002;2022-10-16T14:38:02;20.40;99.90
5960;DHT22;3006;50.956;7.002;2022-10-16T14:40:32;20.50;99.90
5960;DHT22;3006;50.956;7.002;2022-10-16T14:43:01;20.50;99.90
5960;DHT22;3006;50.956;7.002;2022-10-16T14:45:30;20.50;99.90
5960;DHT22;3006;50.956;7.002;2022-10-16T14:48:03;20.50;99.90
5960;DHT22;3006;50.956;7.002;2022-10-16T14:50:32;20.50;99.90
5960;DHT22;3006;50.956;7.002;2022-10-16T14:53:01;20.50;99.90
5960;DHT22;3006;50.956;7.002;2022-10-16T14:55:29;20.50;99.90
5960;DHT22;3006;50.956;7.002;2022-10-16T14:57:58;20.40;99.90
5960;DHT22;3006;50.956;7.002;2022-10-16T15:00:27;20.40;99.90
5960;DHT22;3006;50.956;7.002;2022-10-16T15:02:55;20.40;99.90
5960;DHT22;3006;50.956;7.002;2022-10-16T15:05:24;20.40;99.90
5960;DHT22;3006;50.956;7.002;2022-10-16T15:07:55;20.30;99.90
5960;DHT22;3006;50.956;7.002;2022-10-16T15:10:26;20.20;99.90
5960;DHT22;3006;50.956;7.002;2022-10-16T15:12:55;20.10;99.90
5960;DHT22;3006;50.956;7.002;2022-10-16T15:15:38;20.10;99.90
5960;DHT22;3006;50.956;7.002;2022-10-16T15:18:09;20.00;99.90
5960;DHT22;3006;50.956;7.002;2022-10-16T15:20:38;20.00;99.90
5960;DHT22;3006;50.956;7.002;2022-10-16T15:23:13;20.00;99.90
5960;DHT22;3006;50.956;7.002;2022-10-16T15:25:44;19.90;99.90
5960;DHT22;3006;50.956;7.002;2022-10-16T15:28:14;19.80;99.90
5960;DHT22;3006;50.956;7.002;2022-10-16T15:30:43;19.80;99.90
5960;DHT22;3006;50.956;7.002;2022-10-16T15:33:15;19.80;99.90
5960;DHT22;3006;50.956;7.002;2022-10-16T15:35:46;19.70;99.90
5960;DHT22;3006;50.956;7.002;2022-10-16T15:38:14;19.70;99.90
5960;DHT22;3006;50.956;7.002;2022-10-16T15:40:45;19.60;99.90
5960;DHT22;3006;50.956;7.002;2022-10-16T15:43:13;19.60;99.90
5960;DHT22;3006;50.956;7.002;2022-10-16T15:45:41;19.50;99.90
5960;DHT22;3006;50.956;7.002;2022-10-16T15:48:11;19.50;99.90
5960;DHT22;3006;50.956;7.002;2022-10-16T15:50:40;19.40;99.90
5960;DHT22;3006;50.956;7.002;2022-10-16T15:53:10;19.40;99.90
5960;DHT22;3006;50.956;7.002;2022-10-16T15:55:38;19.40;99.90
5960;DHT22;3006;50.956;7.002;2022-10-16T15:58:08;19.30;99.90
5960;DHT22;3006;50.956;7.002;2022-10-16T16:00:37;19.30;99.90
5960;DHT22;3006;50.956;7.002;2022-10-16T16:03:05;19.30;99.90
5960;DHT22;3006;50.956;7.002;2022-10-16T16:05:37;19.30;99.90
5960;DHT22;3006;50.956;7.002;2022-10-16T16:08:12;19.30;99.90
5960;DHT22;3006;50.956;7.002;2022-10-16T16:10:40;19.20;99.90
5960;DHT22;3006;50.956;7.002;2022-10-16T16:13:09;19.20;99.90
5960;DHT22;3006;50.956;7.002;2022-10-16T16:15:39;19.20;99.90
5960;DHT22;3006;50.956;7.002;2022-10-16T16:18:07;19.20;99.90
5960;DHT22;3006;50.956;7.002;2022-10-16T16:20:36;19.20;99.90
5960;DHT22;3006;50.956;7.002;2022-10-16T16:23:07;19.20;99.90
5960;DHT22;3006;50.956;7.002;2022-10-16T16:25:35;19.20;99.90
5960;DHT22;3006;50.956;7.002;2022-10-16T16:28:03;19.20;99.90
5960;DHT22;3006;50.956;7.002;2022-10-16T16:30:32;19.20;99.90
5960;DHT22;3006;50.956;7.002;2022-10-16T16:33:01;19.20;99.90
5960;DHT22;3006;50.956;7.002;2022-10-16T16:35:29;19.20;99.90
5960;DHT22;3006;50.956;7.002;2022-10-16T16:37:58;19.20;99.90
5960;DHT22;3006;50.956;7.002;2022-10-16T16:40:26;19.10;99.90
5960;DHT22;3006;50.956;7.002;2022-10-16T16:42:54;19.00;99.90